Time;durP1;ratioP1;P1;durP2;ratioP2;P2;SDS_P1;SDS_P2;PMS_P1;PMS_P2;Temp;Humidity;BMP_temperature;BMP_pressure;BME280_temperature;BME280_humidity;BME280_pressure;Samples;Min_cycle;Max_cycle;Signal;HPM_P1;HPM_P2
2022/01/21 00:01:41;;;;;;;9.43;2.70;;;1.70;99.90;;;;;;4974726;28;20287;-68
2022/01/21 00:04:07;;;;;;;17.57;3.47;;;1.60;99.90;;;;;;4974982;28;20187;-67
2022/01/21 00:06:33;;;;;;;3.73;2.67;;;1.40;99.90;;;;;;4972642;28;20554;-68
2022/01/21 00:08:59;;;;;;;6.30;3.00;;;1.40;99.90;;;;;;4975072;28;20447;-67
2022/01/21 00:11:29;;;;;;;5.80;2.77;;;1.40;99.90;;;;;;4974731;28;20196;-67
2022/01/21 00:13:55;;;;;;;7.70;3.00;;;1.40;99.90;;;;;;4975060;28;20202;-68
2022/01/21 00:16:24;;;;;;;7.37;3.20;;;1.40;99.90;;;;;;4974929;28;20440;-67
2022/01/21 00:19:04;;;;;;;5.03;3.20;;;1.40;99.90;;;;;;4974764;28;20650;-67
2022/01/21 00:32:34;;;;;;;4.63;3.00;;;1.20;99.90;;;;;;4972324;28;21290;-68
2022/01/21 00:35:00;;;;;;;6.83;3.13;;;1.30;99.90;;;;;;4973703;28;20443;-68
2022/01/21 00:37:26;;;;;;;4.50;2.60;;;1.30;99.90;;;;;;4974244;28;20187;-67
2022/01/21 00:39:56;;;;;;;5.40;2.90;;;1.30;99.90;;;;;;4974385;28;20938;-67
2022/01/21 00:44:52;;;;;;;6.63;3.27;;;1.30;99.90;;;;;;4974346;28;20439;-67
2022/01/21 00:47:18;;;;;;;4.80;2.73;;;1.30;99.90;;;;;;4974109;28;20446;-68
2022/01/21 00:49:44;;;;;;;6.20;3.50;;;1.40;99.90;;;;;;4974296;28;20934;-67
2022/01/21 00:52:10;;;;;;;4.73;2.50;;;1.40;99.90;;;;;;4974095;28;20452;-67
2022/01/21 00:54:37;;;;;;;7.43;3.30;;;1.40;99.90;;;;;;4974120;28;20665;-68
2022/01/21 00:57:03;;;;;;;8.23;3.07;;;1.50;99.90;;;;;;4974201;28;20665;-67
2022/01/21 00:59:29;;;;;;;10.13;3.50;;;1.70;99.90;;;;;;4973811;28;20436;-68
2022/01/21 01:01:54;;;;;;;11.17;3.30;;;1.70;99.90;;;;;;4973640;28;20822;-67
2022/01/21 01:04:20;;;;;;;6.47;2.80;;;1.70;99.90;;;;;;4973888;28;20262;-67
2022/01/21 01:06:45;;;;;;;4.50;2.43;;;1.70;99.90;;;;;;4973637;28;20214;-67
2022/01/21 01:09:11;;;;;;;2.97;2.63;;;1.70;99.90;;;;;;4973705;28;20700;-67
2022/01/21 01:20:04;;;;;;;5.27;2.90;;;1.70;99.90;;;;;;4974084;28;20447;-67
2022/01/21 01:27:58;;;;;;;5.53;2.70;;;1.70;99.90;;;;;;4973343;28;20471;-67
2022/01/21 01:30:26;;;;;;;5.33;2.37;;;1.70;99.90;;;;;;4973593;28;20961;-67
2022/01/21 01:32:56;;;;;;;5.53;2.60;;;1.70;99.90;;;;;;4973532;28;20443;-67
2022/01/21 01:35:23;;;;;;;8.80;3.77;;;1.70;99.90;;;;;;4972946;28;20472;-67
2022/01/21 01:38:12;;;;;;;5.63;2.67;;;1.70;99.90;;;;;;4973193;28;20841;-67
2022/01/21 01:40:46;;;;;;;7.33;2.97;;;1.70;99.90;;;;;;4972915;28;20470;-67
2022/01/21 01:50:58;;;;;;;3.87;2.23;;;1.70;99.90;;;;;;4973320;28;20459;-68
2022/01/21 01:53:26;;;;;;;6.23;2.63;;;1.60;99.90;;;;;;4973318;28;20435;-67
2022/01/21 01:55:52;;;;;;;8.40;2.80;;;1.60;99.90;;;;;;4972825;28;20494;-68
2022/01/21 01:58:18;;;;;;;8.63;3.20;;;1.60;99.90;;;;;;4973336;28;20442;-67
2022/01/21 02:00:43;;;;;;;4.70;4.23;;;1.60;99.90;;;;;;4972468;28;20479;-67
2022/01/21 02:03:14;;;;;;;4.27;3.07;;;1.50;99.90;;;;;;4973204;28;20251;-68
2022/01/21 02:05:41;;;;;;;6.47;4.10;;;1.60;99.90;;;;;;4963792;28;20638;-67
2022/01/21 02:08:07;;;;;;;5.70;2.70;;;1.60;99.90;;;;;;4972406;28;20551;-67
2022/01/21 02:10:34;;;;;;;7.70;3.17;;;1.50;99.90;;;;;;4972643;28;20463;-68
2022/01/21 02:13:05;;;;;;;9.40;3.53;;;1.50;99.90;;;;;;4972837;28;20172;-67
2022/01/21 02:15:36;;;;;;;5.50;2.80;;;1.50;99.90;;;;;;4972716;28;20432;-67
2022/01/21 02:23:30;;;;;;;10.97;3.60;;;1.60;99.90;;;;;;4972827;28;20939;-67
2022/01/21 02:25:55;;;;;;;4.07;3.57;;;1.60;99.90;;;;;;4972718;28;20439;-67
2022/01/21 02:28:21;;;;;;;6.83;3.20;;;1.60;99.90;;;;;;4972958;28;20180;-67
2022/01/21 02:30:57;;;;;;;3.27;2.90;;;1.60;99.90;;;;;;4972518;28;20254;-67
2022/01/21 02:33:25;;;;;;;9.00;3.00;;;1.60;99.90;;;;;;4972252;28;20311;-68
2022/01/21 02:35:51;;;;;;;4.63;2.90;;;1.60;99.90;;;;;;4972245;28;21072;-68
2022/01/21 02:38:17;;;;;;;8.70;3.57;;;1.50;99.90;;;;;;4972342;28;20522;-67
2022/01/21 02:40:43;;;;;;;5.73;2.33;;;1.50;99.90;;;;;;4972373;28;20222;-67
2022/01/21 02:43:09;;;;;;;9.37;5.03;;;1.40;99.90;;;;;;4972356;28;20176;-67
2022/01/21 02:45:37;;;;;;;8.40;2.53;;;1.30;99.90;;;;;;4972175;28;20439;-67
2022/01/21 02:48:04;;;;;;;7.00;3.90;;;1.30;99.90;;;;;;4973002;28;20180;-67
2022/01/21 02:50:30;;;;;;;6.90;3.00;;;1.30;99.90;;;;;;4976742;28;20479;-67
2022/01/21 02:53:08;;;;;;;11.90;3.53;;;1.20;99.90;;;;;;4976456;28;20527;-67
2022/01/21 02:55:34;;;;;;;10.60;3.10;;;1.20;99.90;;;;;;4976165;28;20227;-67
2022/01/21 02:57:59;;;;;;;6.70;3.20;;;1.20;99.90;;;;;;4975922;28;20933;-67
2022/01/21 03:00:25;;;;;;;7.40;3.03;;;1.20;99.90;;;;;;4976266;28;20204;-67
2022/01/21 03:02:51;;;;;;;3.77;2.90;;;1.10;99.90;;;;;;4976119;28;20172;-67
2022/01/21 03:05:18;;;;;;;8.10;2.93;;;1.10;99.90;;;;;;4975514;28;20176;-68
2022/01/21 03:07:44;;;;;;;4.33;2.87;;;1.10;99.90;;;;;;4975413;28;20172;-67
2022/01/21 03:10:11;;;;;;;6.93;3.27;;;1.10;99.90;;;;;;4975764;28;20443;-67
2022/01/21 03:12:37;;;;;;;4.60;2.70;;;1.20;99.90;;;;;;4976192;28;20495;-67
2022/01/21 03:15:03;;;;;;;5.40;3.37;;;1.30;99.90;;;;;;4975735;28;20482;-67
2022/01/21 03:17:29;;;;;;;7.50;2.90;;;1.30;99.90;;;;;;4975837;28;20646;-67
2022/01/21 03:19:54;;;;;;;5.43;2.73;;;1.40;99.90;;;;;;4975958;28;20458;-67
2022/01/21 03:22:20;;;;;;;5.50;3.20;;;1.50;99.90;;;;;;4975380;28;20196;-67
2022/01/21 03:24:45;;;;;;;7.80;2.60;;;1.60;99.90;;;;;;4976097;28;20180;-67
2022/01/21 03:27:11;;;;;;;7.73;2.90;;;1.70;99.90;;;;;;4975950;28;20388;-67
2022/01/21 03:29:37;;;;;;;9.43;3.10;;;1.70;99.90;;;;;;4975508;28;20178;-67
2022/01/21 03:32:02;;;;;;;6.50;3.20;;;1.70;99.90;;;;;;4975870;28;20196;-67
2022/01/21 03:34:28;;;;;;;7.20;2.63;;;1.80;99.90;;;;;;4975781;28;20176;-67
2022/01/21 03:36:54;;;;;;;6.53;2.83;;;1.80;99.90;;;;;;4975505;28;20211;-67
2022/01/21 03:39:20;;;;;;;6.40;3.03;;;1.70;99.90;;;;;;4975281;28;20179;-68
2022/01/21 03:41:45;;;;;;;4.43;2.87;;;1.70;99.90;;;;;;4975681;28;20470;-68
2022/01/21 03:44:11;;;;;;;11.63;3.83;;;1.60;99.90;;;;;;4975267;28;20172;-68
2022/01/21 03:46:36;;;;;;;4.97;3.83;;;1.60;99.90;;;;;;4974983;28;20184;-67
2022/01/21 03:49:04;;;;;;;5.67;3.20;;;1.50;99.90;;;;;;4975708;28;20922;-67
2022/01/21 03:51:30;;;;;;;7.63;3.43;;;1.50;99.90;;;;;;4975074;28;20204;-68
2022/01/21 03:53:56;;;;;;;9.07;3.60;;;1.50;99.90;;;;;;4975326;28;20444;-67
2022/01/21 03:56:22;;;;;;;5.53;3.40;;;1.50;99.90;;;;;;4975624;28;20431;-67
2022/01/21 03:58:47;;;;;;;8.47;3.70;;;1.50;99.90;;;;;;4975137;28;20176;-67
2022/01/21 04:01:17;;;;;;;10.37;3.30;;;1.50;99.90;;;;;;4975263;28;20254;-67
2022/01/21 04:03:43;;;;;;;12.10;3.80;;;1.40;99.90;;;;;;4975304;28;20172;-67
2022/01/21 04:06:08;;;;;;;10.93;3.20;;;1.40;99.90;;;;;;4974833;28;20434;-66
2022/01/21 04:08:34;;;;;;;8.23;3.00;;;1.40;99.90;;;;;;4975199;28;20177;-67
2022/01/21 04:10:59;;;;;;;5.70;3.23;;;1.40;99.90;;;;;;4974754;28;20196;-66
2022/01/21 04:13:26;;;;;;;9.00;3.37;;;1.40;99.90;;;;;;4974731;28;20197;-67
2022/01/21 04:15:55;;;;;;;6.90;2.90;;;1.50;99.90;;;;;;4974426;28;20646;-67
2022/01/21 04:18:22;;;;;;;6.97;3.13;;;1.50;99.90;;;;;;4962616;28;20902;-67
2022/01/21 04:20:48;;;;;;;8.43;4.03;;;1.50;99.90;;;;;;4974964;28;20542;-68
2022/01/21 04:23:19;;;;;;;8.10;4.07;;;1.50;99.90;;;;;;4974937;28;20487;-66
2022/01/21 04:25:44;;;;;;;6.87;3.83;;;1.50;99.90;;;;;;4974660;28;20180;-67
2022/01/21 04:28:10;;;;;;;6.87;3.00;;;1.50;99.90;;;;;;4974439;28;20797;-67
2022/01/21 04:30:36;;;;;;;9.10;4.03;;;1.60;99.90;;;;;;4974429;28;20786;-67
2022/01/21 04:33:03;;;;;;;7.20;3.50;;;1.60;99.90;;;;;;4974268;28;20442;-67
2022/01/21 04:35:29;;;;;;;7.40;3.70;;;1.40;99.90;;;;;;4974389;28;20195;-67
2022/01/21 04:37:59;;;;;;;7.40;3.70;;;1.30;99.90;;;;;;4974372;28;20439;-67
2022/01/21 04:40:28;;;;;;;9.10;4.10;;;1.20;99.90;;;;;;4974251;28;21041;-67
2022/01/21 04:48:24;;;;;;;7.60;4.27;;;1.20;99.90;;;;;;4974518;28;20567;-67
2022/01/21 04:50:56;;;;;;;11.03;4.23;;;1.20;99.90;;;;;;4967793;28;20555;-67
2022/01/21 04:53:23;;;;;;;8.80;4.70;;;1.30;99.90;;;;;;4970492;28;20740;-67
2022/01/21 04:55:49;;;;;;;6.53;3.60;;;1.30;99.90;;;;;;4973958;28;20968;-68
2022/01/21 04:58:15;;;;;;;6.03;3.50;;;1.30;99.90;;;;;;4961227;28;20506;-68
2022/01/21 05:00:43;;;;;;;7.93;4.13;;;1.30;99.90;;;;;;4974173;28;20554;-68
2022/01/21 05:03:10;;;;;;;16.07;4.93;;;1.30;99.90;;;;;;4974234;28;20180;-68
2022/01/21 05:05:36;;;;;;;8.13;4.10;;;1.30;99.90;;;;;;4973749;28;20925;-68
2022/01/21 05:08:05;;;;;;;7.73;4.83;;;1.40;99.90;;;;;;4981567;28;20463;-68
2022/01/21 05:10:31;;;;;;;11.80;4.97;;;1.30;99.90;;;;;;4973359;28;21061;-68
2022/01/21 05:12:56;;;;;;;7.30;4.43;;;1.20;99.90;;;;;;4973459;28;20535;-68
2022/01/21 05:15:47;;;;;;;6.80;3.77;;;1.30;99.90;;;;;;4973524;28;20192;-69
2022/01/21 05:18:08;;;;;;;8.00;4.37;;;1.40;99.90;;;;;;4976333;28;20180;-69
2022/01/21 05:20:33;;;;;;;8.47;3.30;;;1.40;99.90;;;;;;4978453;28;20993;-68
2022/01/21 05:22:59;;;;;;;10.00;4.20;;;1.40;99.90;;;;;;4976007;28;20180;-68
2022/01/21 05:25:24;;;;;;;11.03;5.93;;;1.40;99.90;;;;;;4982150;28;20183;-68
2022/01/21 05:27:52;;;;;;;5.80;3.33;;;1.30;99.90;;;;;;4976824;28;20180;-68
2022/01/21 05:30:18;;;;;;;5.93;3.40;;;1.30;99.90;;;;;;4971496;28;20180;-68
2022/01/21 05:32:44;;;;;;;7.97;3.60;;;1.30;99.90;;;;;;4975391;28;20451;-69
2022/01/21 05:35:10;;;;;;;5.30;3.70;;;1.30;99.90;;;;;;4978891;28;20188;-69
2022/01/21 05:37:36;;;;;;;7.27;3.90;;;1.30;99.90;;;;;;4978212;28;20203;-69
2022/01/21 05:40:04;;;;;;;12.50;3.93;;;1.30;99.90;;;;;;4973051;28;20459;-68
2022/01/21 05:42:33;;;;;;;8.67;4.27;;;1.30;99.90;;;;;;4972778;28;20455;-68
2022/01/21 05:47:24;;;;;;;10.00;4.50;;;1.30;99.90;;;;;;4967656;28;20441;-68
2022/01/21 05:49:49;;;;;;;10.00;4.73;;;1.30;99.90;;;;;;4967887;28;20180;-68
2022/01/21 05:52:17;;;;;;;6.00;3.50;;;1.30;99.90;;;;;;4973162;28;20623;-68
2022/01/21 05:54:45;;;;;;;8.73;4.23;;;1.40;99.90;;;;;;4973308;28;20169;-68
2022/01/21 05:57:13;;;;;;;13.67;4.23;;;1.30;99.90;;;;;;4965581;28;20442;-68
2022/01/21 05:59:38;;;;;;;9.27;3.83;;;1.30;99.90;;;;;;4972728;28;20432;-69
2022/01/21 06:02:06;;;;;;;16.03;4.70;;;1.30;99.90;;;;;;4973308;28;20525;-68
2022/01/21 06:04:33;;;;;;;9.40;4.53;;;1.20;99.90;;;;;;4972936;28;20183;-68
2022/01/21 06:07:00;;;;;;;8.17;4.10;;;1.30;99.90;;;;;;4972589;28;20446;-68
2022/01/21 06:09:27;;;;;;;7.87;4.10;;;1.30;99.90;;;;;;4973043;28;20443;-68
2022/01/21 06:11:52;;;;;;;15.30;5.97;;;1.30;99.90;;;;;;4972707;28;20996;-67
2022/01/21 06:14:18;;;;;;;5.07;3.50;;;1.20;99.90;;;;;;4973110;28;20431;-68
2022/01/21 06:16:44;;;;;;;8.87;4.37;;;1.30;99.90;;;;;;4972395;28;20926;-68
2022/01/21 06:19:10;;;;;;;9.50;4.37;;;1.30;99.90;;;;;;4972772;28;20942;-68
2022/01/21 06:21:35;;;;;;;7.43;4.40;;;1.30;99.90;;;;;;4972434;28;20275;-68
2022/01/21 06:24:01;;;;;;;5.90;4.00;;;1.20;99.90;;;;;;4971244;28;20260;-68
2022/01/21 06:26:26;;;;;;;10.27;4.80;;;1.30;99.90;;;;;;4972386;28;20652;-69
2022/01/21 06:28:52;;;;;;;7.83;4.50;;;1.30;99.90;;;;;;4972697;28;20176;-68
2022/01/21 06:31:18;;;;;;;12.13;5.37;;;1.30;99.90;;;;;;4971057;28;20203;-68
2022/01/21 06:33:43;;;;;;;8.17;4.90;;;1.30;99.90;;;;;;4972823;28;20191;-69
2022/01/21 06:36:09;;;;;;;15.70;6.53;;;1.40;99.90;;;;;;4971988;28;20279;-68
2022/01/21 06:38:35;;;;;;;11.17;6.77;;;1.50;99.90;;;;;;4972792;28;20195;-68
2022/01/21 06:41:01;;;;;;;12.47;6.63;;;1.50;99.90;;;;;;4971980;28;20710;-68
2022/01/21 06:43:27;;;;;;;17.27;8.10;;;1.50;99.90;;;;;;4972383;28;20463;-69
2022/01/21 06:45:53;;;;;;;19.27;5.97;;;1.60;99.90;;;;;;4972221;28;20180;-68
2022/01/21 06:48:18;;;;;;;15.17;7.40;;;1.60;99.90;;;;;;4972207;28;20191;-69
2022/01/21 06:50:44;;;;;;;9.30;5.10;;;1.70;99.90;;;;;;4972406;28;20204;-68
2022/01/21 06:53:10;;;;;;;10.00;4.97;;;1.70;99.90;;;;;;4972339;28;20192;-68
2022/01/21 06:55:36;;;;;;;12.50;6.47;;;1.70;99.90;;;;;;4972344;28;20200;-69
2022/01/21 06:58:03;;;;;;;12.47;8.37;;;1.60;99.90;;;;;;4972979;28;20188;-68
2022/01/21 07:00:28;;;;;;;13.83;7.50;;;1.60;99.90;;;;;;4971871;28;20988;-69
2022/01/21 07:02:54;;;;;;;16.27;7.53;;;1.60;99.90;;;;;;4972431;28;20498;-69
2022/01/21 07:05:22;;;;;;;10.87;5.70;;;1.70;99.90;;;;;;4972375;28;20181;-68
2022/01/21 07:07:48;;;;;;;11.33;4.73;;;1.70;99.90;;;;;;4972095;28;20173;-68
2022/01/21 07:10:15;;;;;;;10.87;5.20;;;1.70;99.90;;;;;;4972306;28;20459;-67
2022/01/21 07:12:43;;;;;;;11.20;6.07;;;1.70;99.90;;;;;;4970900;28;20531;-68
2022/01/21 07:15:10;;;;;;;5.07;4.53;;;1.70;99.90;;;;;;4971840;28;20449;-68
2022/01/21 07:17:35;;;;;;;9.77;6.20;;;1.80;99.90;;;;;;4972474;28;20435;-68
2022/01/21 07:20:03;;;;;;;7.37;4.63;;;1.70;99.90;;;;;;4971191;28;20502;-68
2022/01/21 07:22:28;;;;;;;9.43;4.70;;;1.70;99.90;;;;;;4971911;28;20200;-68
2022/01/21 07:24:54;;;;;;;12.87;6.57;;;1.70;99.90;;;;;;4971960;28;20440;-67
2022/01/21 07:27:19;;;;;;;9.13;4.63;;;1.60;99.90;;;;;;4971985;28;20247;-68
2022/01/21 07:29:45;;;;;;;14.70;5.30;;;1.60;99.90;;;;;;4957469;28;20188;-67
2022/01/21 07:32:10;;;;;;;13.00;6.30;;;1.60;99.90;;;;;;4972188;28;20688;-67
2022/01/21 07:34:36;;;;;;;10.40;5.87;;;1.60;99.90;;;;;;4973417;28;20643;-67
2022/01/21 07:37:02;;;;;;;10.93;6.27;;;1.60;99.90;;;;;;4975488;28;20188;-67
2022/01/21 07:39:28;;;;;;;7.47;5.27;;;1.70;99.90;;;;;;4975530;28;20212;-67
2022/01/21 07:41:54;;;;;;;6.17;4.53;;;1.70;99.90;;;;;;4975394;28;20969;-67
2022/01/21 07:44:19;;;;;;;14.53;5.10;;;1.80;99.90;;;;;;4975704;28;20188;-67
2022/01/21 07:46:47;;;;;;;8.63;5.33;;;1.80;99.90;;;;;;4974787;28;20673;-67
2022/01/21 07:49:13;;;;;;;17.03;7.20;;;1.80;99.90;;;;;;4975515;28;20190;-67
2022/01/21 07:51:38;;;;;;;8.47;5.53;;;1.60;99.90;;;;;;4974958;28;20550;-68
2022/01/21 07:54:04;;;;;;;8.63;5.40;;;1.70;99.90;;;;;;4975318;28;20181;-68
2022/01/21 07:56:33;;;;;;;6.90;5.73;;;1.80;99.90;;;;;;4984614;28;20710;-67
2022/01/21 07:58:59;;;;;;;18.37;9.30;;;1.80;99.90;;;;;;4968110;28;20945;-67
2022/01/21 08:01:24;;;;;;;10.23;6.37;;;1.80;99.90;;;;;;4943132;28;20510;-67
2022/01/21 08:03:50;;;;;;;13.80;7.90;;;1.90;99.90;;;;;;4962670;28;20435;-67
2022/01/21 08:06:15;;;;;;;14.40;6.70;;;1.90;99.90;;;;;;4974089;28;20188;-67
2022/01/21 08:08:41;;;;;;;10.60;6.00;;;1.80;99.90;;;;;;4974749;28;20191;-67
2022/01/21 08:11:06;;;;;;;12.73;6.30;;;1.80;99.90;;;;;;4973685;28;20222;-67
2022/01/21 08:13:32;;;;;;;14.87;7.20;;;1.90;99.90;;;;;;4974291;28;20275;-67
2022/01/21 08:15:59;;;;;;;10.50;5.60;;;2.00;99.90;;;;;;4973346;28;20192;-68
2022/01/21 08:18:25;;;;;;;8.53;5.90;;;1.90;99.90;;;;;;4973465;28;20195;-68
2022/01/21 08:20:51;;;;;;;13.27;8.27;;;2.00;99.90;;;;;;4969031;28;20475;-68
2022/01/21 08:23:17;;;;;;;14.00;6.40;;;2.20;99.90;;;;;;4974318;28;20207;-68
2022/01/21 08:25:43;;;;;;;6.83;5.47;;;2.50;99.90;;;;;;4974066;28;20206;-67
2022/01/21 08:28:09;;;;;;;11.67;5.70;;;2.60;99.90;;;;;;4974384;28;20450;-68
2022/01/21 08:30:35;;;;;;;14.90;5.03;;;2.90;99.90;;;;;;4973803;28;21134;-67
2022/01/21 08:33:01;;;;;;;10.17;5.90;;;3.00;99.90;;;;;;4967519;28;20268;-67
2022/01/21 08:35:27;;;;;;;12.87;6.40;;;3.40;99.90;;;;;;4969622;28;20458;-66
2022/01/21 08:37:53;;;;;;;12.30;6.03;;;3.50;99.90;;;;;;4971118;28;20973;-67
2022/01/21 08:40:21;;;;;;;7.90;5.00;;;3.40;99.90;;;;;;4970552;28;20278;-67
2022/01/21 08:42:46;;;;;;;9.60;6.00;;;3.50;99.90;;;;;;4971029;28;20451;-67
2022/01/21 08:45:13;;;;;;;6.20;5.43;;;3.10;99.90;;;;;;4970461;28;20825;-67
2022/01/21 08:47:42;;;;;;;16.40;5.87;;;2.90;99.90;;;;;;4970625;28;20950;-67
2022/01/21 08:50:11;;;;;;;12.50;7.80;;;2.70;99.90;;;;;;4970489;28;20440;-66
2022/01/21 08:52:37;;;;;;;8.47;5.03;;;2.80;99.90;;;;;;4970637;28;21039;-67
2022/01/21 08:55:09;;;;;;;8.80;6.20;;;2.90;99.90;;;;;;4971465;28;20550;-67
2022/01/21 08:57:36;;;;;;;15.03;7.37;;;2.90;99.90;;;;;;4970276;28;20539;-67
2022/01/21 09:00:05;;;;;;;11.13;6.37;;;2.90;99.90;;;;;;4969658;28;20451;-68
2022/01/21 09:02:31;;;;;;;11.33;6.90;;;2.90;99.90;;;;;;4970743;28;20491;-67
2022/01/21 09:04:56;;;;;;;10.77;5.90;;;2.90;99.90;;;;;;4970583;28;20941;-67
2022/01/21 09:07:22;;;;;;;10.83;5.70;;;3.00;99.90;;;;;;4970330;28;20188;-67
2022/01/21 09:09:48;;;;;;;8.60;6.50;;;3.00;99.90;;;;;;4969745;28;20255;-67
2022/01/21 09:12:13;;;;;;;10.37;6.07;;;3.00;99.90;;;;;;4970446;28;20204;-67
2022/01/21 09:14:39;;;;;;;10.40;5.43;;;3.00;99.90;;;;;;4970634;28;20316;-67
2022/01/21 09:17:04;;;;;;;11.77;5.57;;;2.80;99.90;;;;;;4970431;28;20626;-67
2022/01/21 09:19:32;;;;;;;10.30;6.33;;;2.80;99.90;;;;;;4970300;28;20600;-67
2022/01/21 09:21:58;;;;;;;11.67;8.17;;;2.80;99.90;;;;;;4969428;28;20327;-67
2022/01/21 09:24:23;;;;;;;14.60;6.10;;;2.90;99.90;;;;;;4969939;28;20957;-66
2022/01/21 09:26:49;;;;;;;19.57;7.23;;;2.80;99.90;;;;;;4969699;28;20661;-66
2022/01/21 09:29:16;;;;;;;7.53;6.10;;;2.80;99.90;;;;;;4968752;28;20188;-67
2022/01/21 09:31:43;;;;;;;8.63;5.57;;;2.90;99.90;;;;;;4969648;28;20204;-68
2022/01/21 09:34:08;;;;;;;8.47;6.83;;;2.90;99.90;;;;;;4969967;28;20447;-67
2022/01/21 09:36:34;;;;;;;10.10;6.13;;;3.00;99.90;;;;;;4966951;28;20509;-67
2022/01/21 09:39:00;;;;;;;7.83;5.87;;;2.90;99.90;;;;;;4970000;28;20228;-67
2022/01/21 09:41:28;;;;;;;14.97;6.97;;;3.00;99.90;;;;;;4969671;28;20708;-67
2022/01/21 09:43:54;;;;;;;14.73;6.57;;;3.30;99.90;;;;;;4969770;28;20435;-67
2022/01/21 09:46:32;;;;;;;8.57;6.80;;;3.30;99.90;;;;;;4969312;28;20447;-68
2022/01/21 09:49:09;;;;;;;8.43;6.60;;;3.10;99.90;;;;;;4969972;28;20494;-67
2022/01/21 09:51:37;;;;;;;12.97;6.40;;;3.00;99.90;;;;;;4969001;28;20501;-67
2022/01/21 09:54:06;;;;;;;12.80;6.03;;;2.90;99.90;;;;;;4969748;28;20486;-67
2022/01/21 09:56:34;;;;;;;9.60;6.00;;;3.10;99.90;;;;;;4969503;28;20444;-67
2022/01/21 09:59:00;;;;;;;9.87;5.27;;;3.20;99.90;;;;;;4969003;28;20482;-67
2022/01/21 10:01:27;;;;;;;12.47;8.40;;;3.50;99.90;;;;;;4991034;23;20503;-64
2022/01/21 10:03:53;;;;;;;10.43;6.00;;;3.80;99.90;;;;;;4969155;28;20451;-64
2022/01/21 10:06:24;;;;;;;8.63;4.33;;;4.10;99.90;;;;;;4965387;28;21100;-64
2022/01/21 10:08:53;;;;;;;10.20;5.27;;;4.60;99.90;;;;;;4969858;28;20471;-64
2022/01/21 10:11:20;;;;;;;7.40;5.40;;;4.20;99.90;;;;;;4969754;28;20947;-64
2022/01/21 10:13:48;;;;;;;13.07;5.50;;;4.40;99.90;;;;;;4969495;28;20443;-64
2022/01/21 10:16:13;;;;;;;8.23;4.90;;;4.60;99.90;;;;;;4969068;28;20470;-64
2022/01/21 10:19:01;;;;;;;12.13;9.33;;;4.50;99.90;;;;;;4968998;28;20506;-64
2022/01/21 10:21:32;;;;;;;8.57;7.17;;;4.70;99.90;;;;;;4965410;28;20951;-64
2022/01/21 10:24:12;;;;;;;10.50;4.60;;;4.50;99.90;;;;;;4968778;28;20526;-64
2022/01/21 10:26:50;;;;;;;8.10;5.10;;;4.30;99.90;;;;;;4967737;28;21249;-64
2022/01/21 10:29:16;;;;;;;8.67;5.80;;;4.40;99.90;;;;;;4969008;28;20436;-64
2022/01/21 10:31:51;;;;;;;10.03;6.37;;;4.30;99.90;;;;;;4967747;28;21233;-64
2022/01/21 10:34:43;;;;;;;11.20;6.10;;;4.50;99.90;;;;;;4969758;28;20530;-64
2022/01/21 10:37:22;;;;;;;11.93;5.37;;;4.60;99.90;;;;;;4967086;28;20791;-65
2022/01/21 10:40:21;;;;;;;11.57;6.00;;;4.60;99.90;;;;;;4968938;28;20443;-64
2022/01/21 10:42:47;;;;;;;7.00;4.70;;;4.40;99.90;;;;;;4964771;28;20838;-64
2022/01/21 10:45:12;;;;;;;12.33;5.53;;;4.40;99.90;;;;;;4968425;28;20443;-65
2022/01/21 10:47:48;;;;;;;11.07;5.80;;;4.30;99.90;;;;;;4969421;28;20446;-65
2022/01/21 10:50:18;;;;;;;14.87;5.17;;;4.20;99.90;;;;;;4969013;28;20188;-64
2022/01/21 10:52:51;;;;;;;8.33;4.37;;;3.90;99.90;;;;;;4968226;28;20463;-64
2022/01/21 10:55:32;;;;;;;10.13;5.00;;;3.70;99.90;;;;;;4968591;28;20439;-64
2022/01/21 10:58:18;;;;;;;9.17;4.37;;;3.80;99.90;;;;;;4969303;28;20444;-65
2022/01/21 11:01:00;;;;;;;10.40;5.87;;;3.70;99.90;;;;;;4957484;28;20949;-64
2022/01/21 11:03:29;;;;;;;10.77;4.97;;;3.50;99.90;;;;;;4969067;28;20869;-64
2022/01/21 11:06:19;;;;;;;7.00;4.17;;;3.80;99.90;;;;;;4968691;28;20494;-64
2022/01/21 11:08:45;;;;;;;6.20;5.17;;;4.40;99.90;;;;;;4969054;28;21098;-64
2022/01/21 11:11:11;;;;;;;8.13;4.90;;;4.90;99.90;;;;;;4971869;28;20559;-64
2022/01/21 11:13:39;;;;;;;6.07;4.90;;;5.10;99.90;;;;;;4973107;28;20845;-64
2022/01/21 11:16:05;;;;;;;7.80;4.43;;;5.30;99.90;;;;;;4972830;28;20449;-64
2022/01/21 11:18:31;;;;;;;11.63;4.70;;;5.60;99.90;;;;;;4974289;28;20439;-64
2022/01/21 11:21:08;;;;;;;14.00;5.73;;;5.80;99.90;;;;;;4972226;28;20294;-64
2022/01/21 11:23:36;;;;;;;6.70;4.80;;;5.50;99.90;;;;;;4972766;28;20826;-64
2022/01/21 11:26:04;;;;;;;6.93;3.60;;;5.30;99.90;;;;;;4972206;28;20442;-64
2022/01/21 11:28:40;;;;;;;5.37;3.37;;;5.10;99.90;;;;;;4971331;28;20443;-64
2022/01/21 11:31:07;;;;;;;6.83;4.73;;;4.70;99.90;;;;;;4971434;28;20447;-64
2022/01/21 11:33:33;;;;;;;5.93;4.10;;;4.60;99.90;;;;;;4987347;28;20466;-65
2022/01/21 11:36:00;;;;;;;5.23;3.60;;;4.60;99.90;;;;;;4972020;28;20447;-64
2022/01/21 11:38:26;;;;;;;11.17;3.73;;;4.70;99.90;;;;;;4972347;28;20532;-64
2022/01/21 11:40:53;;;;;;;9.13;4.93;;;4.90;99.90;;;;;;4970132;28;20494;-64
2022/01/21 11:43:20;;;;;;;6.30;3.63;;;4.80;99.90;;;;;;4972393;28;20463;-64
2022/01/21 11:48:52;;;;;;;7.00;3.90;;;4.90;99.90;;;;;;4971258;28;20443;-64
2022/01/21 11:51:26;;;;;;;7.97;3.80;;;4.70;99.90;;;;;;4970181;28;20454;-64
2022/01/21 11:53:53;;;;;;;6.17;3.60;;;4.80;99.90;;;;;;4969596;28;21012;-63
2022/01/21 11:56:37;;;;;;;6.93;3.97;;;4.80;99.90;;;;;;4971196;28;20446;-65
2022/01/21 11:59:10;;;;;;;5.00;4.07;;;4.50;99.90;;;;;;4971361;28;20482;-64
2022/01/21 12:01:47;;;;;;;8.33;3.57;;;4.60;99.90;;;;;;4962389;28;20521;-65
2022/01/21 12:04:37;;;;;;;4.70;3.20;;;4.70;99.90;;;;;;4972247;28;20564;-64
2022/01/21 12:07:03;;;;;;;6.60;3.37;;;4.40;99.90;;;;;;4970936;28;21031;-64
2022/01/21 12:09:58;;;;;;;8.67;3.73;;;4.20;99.90;;;;;;4971308;28;20439;-65
2022/01/21 12:12:26;;;;;;;10.10;3.37;;;4.30;99.90;;;;;;4971971;28;20199;-65
2022/01/21 12:14:59;;;;;;;9.73;4.27;;;4.50;99.90;;;;;;4970916;28;20526;-65
2022/01/21 12:17:50;;;;;;;9.43;5.47;;;4.60;99.90;;;;;;4971591;28;20435;-65
2022/01/21 12:20:16;;;;;;;7.97;3.47;;;4.50;99.90;;;;;;4971991;28;20463;-65
2022/01/21 12:22:41;;;;;;;10.07;3.80;;;4.50;99.90;;;;;;4971434;28;20968;-65
2022/01/21 12:25:12;;;;;;;8.10;3.90;;;4.30;99.90;;;;;;4971236;28;20194;-65
2022/01/21 12:27:40;;;;;;;6.47;2.60;;;4.40;99.90;;;;;;4971342;28;20312;-65
2022/01/21 12:30:27;;;;;;;5.50;3.90;;;4.40;99.90;;;;;;4970476;28;20443;-65
2022/01/21 12:33:03;;;;;;;5.93;3.57;;;4.30;99.90;;;;;;4970868;28;20514;-65
2022/01/21 12:35:30;;;;;;;5.87;3.07;;;4.20;99.90;;;;;;4970825;28;20435;-64
2022/01/21 12:39:09;;;;;;;7.47;2.70;;;4.20;99.90;;;;;;4971316;28;20529;-64
2022/01/21 12:41:17;;;;;;;5.77;3.43;;;4.00;99.90;;;;;;4963659;28;20523;-64
2022/01/21 12:44:07;;;;;;;6.13;3.70;;;4.00;99.90;;;;;;4971220;28;20434;-64
2022/01/21 12:46:37;;;;;;;8.20;3.10;;;4.10;99.90;;;;;;4971076;28;20439;-64
2022/01/21 12:49:33;;;;;;;6.07;2.90;;;4.10;99.90;;;;;;4969441;28;20451;-64
2022/01/21 12:57:30;;;;;;;4.77;2.90;;;4.50;99.90;;;;;;4971288;28;20467;-64
2022/01/21 12:59:58;;;;;;;10.10;2.80;;;4.50;99.90;;;;;;4970456;28;20442;-64
2022/01/21 13:02:26;;;;;;;6.63;3.23;;;4.40;99.90;;;;;;4971116;28;20996;-64
2022/01/21 13:05:19;;;;;;;6.07;3.30;;;4.20;99.90;;;;;;4966916;28;20428;-64
2022/01/21 13:08:04;;;;;;;13.60;3.43;;;4.30;99.90;;;;;;4961141;28;20921;-64
2022/01/21 13:10:30;;;;;;;8.13;2.40;;;4.20;99.90;;;;;;4970764;28;20991;-64
2022/01/21 13:13:13;;;;;;;8.30;3.20;;;4.40;99.90;;;;;;4970939;28;20499;-63
2022/01/21 13:15:48;;;;;;;8.00;4.03;;;4.40;99.90;;;;;;4970527;28;20258;-63
2022/01/21 13:18:26;;;;;;;6.07;2.97;;;4.40;99.90;;;;;;4971049;28;20525;-64
2022/01/21 13:20:54;;;;;;;6.13;2.90;;;4.50;99.90;;;;;;4970683;28;20602;-63
2022/01/21 13:23:50;;;;;;;6.27;3.47;;;4.60;99.90;;;;;;4970261;28;20459;-64
2022/01/21 13:26:17;;;;;;;11.50;2.77;;;4.50;99.90;;;;;;4970474;28;20943;-64
2022/01/21 13:28:59;;;;;;;9.23;4.27;;;4.50;99.90;;;;;;4970307;28;20451;-64
2022/01/21 13:31:26;;;;;;;9.97;4.13;;;4.50;99.90;;;;;;4970011;28;20439;-65
2022/01/21 13:34:05;;;;;;;9.13;3.90;;;4.50;99.90;;;;;;4970046;28;20514;-65
2022/01/21 13:36:59;;;;;;;9.40;2.87;;;4.50;99.90;;;;;;4970326;28;20450;-65
2022/01/21 13:39:24;;;;;;;11.10;4.63;;;4.60;99.90;;;;;;4970343;28;20963;-65
2022/01/21 13:41:54;;;;;;;8.00;3.00;;;4.70;99.90;;;;;;4969056;28;20522;-65
2022/01/21 13:44:35;;;;;;;6.00;3.60;;;4.50;99.90;;;;;;4969157;28;20696;-65
2022/01/21 13:47:04;;;;;;;14.40;3.17;;;4.50;99.90;;;;;;4970140;28;20435;-65
2022/01/21 13:49:30;;;;;;;7.63;4.27;;;4.30;99.90;;;;;;4970216;28;20495;-65
2022/01/21 13:51:57;;;;;;;5.60;3.40;;;4.40;99.90;;;;;;4968645;28;21015;-65
2022/01/21 13:54:41;;;;;;;6.27;3.23;;;4.40;99.90;;;;;;4970431;28;20442;-64
2022/01/21 13:57:07;;;;;;;4.90;3.40;;;4.40;99.90;;;;;;4969835;28;20551;-64
2022/01/21 13:59:39;;;;;;;10.23;5.00;;;4.30;99.90;;;;;;4969565;28;21179;-64